sensor_id;sensor_type;location;lat;lon;timestamp;P1;durP1;ratioP1;P2;durP2;ratioP2
4248;SDS011;8404;48.752;12.922;2022-09-17T00:01:26;12.32;;;9.65;;
4248;SDS011;8404;48.752;12.922;2022-09-17T00:03:57;10.23;;;9.07;;
4248;SDS011;8404;48.752;12.922;2022-09-17T00:06:30;10.25;;;9.05;;
4248;SDS011;8404;48.752;12.922;2022-09-17T00:09:01;10.98;;;9.32;;
4248;SDS011;8404;48.752;12.922;2022-09-17T00:11:30;9.85;;;8.00;;
4248;SDS011;8404;48.752;12.922;2022-09-17T00:14:01;9.80;;;8.20;;
4248;SDS011;8404;48.752;12.922;2022-09-17T00:16:30;10.30;;;9.23;;
4248;SDS011;8404;48.752;12.922;2022-09-17T00:19:00;9.07;;;8.02;;
4248;SDS011;8404;48.752;12.922;2022-09-17T00:21:30;8.95;;;8.05;;
4248;SDS011;8404;48.752;12.922;2022-09-17T00:24:02;9.70;;;7.85;;
4248;SDS011;8404;48.752;12.922;2022-09-17T00:26:31;10.40;;;7.55;;
4248;SDS011;8404;48.752;12.922;2022-09-17T00:29:02;7.80;;;6.85;;
4248;SDS011;8404;48.752;12.922;2022-09-17T00:31:31;9.18;;;7.47;;
4248;SDS011;8404;48.752;12.922;2022-09-17T00:34:00;8.95;;;6.93;;
4248;SDS011;8404;48.752;12.922;2022-09-17T00:36:29;7.18;;;6.40;;
4248;SDS011;8404;48.752;12.922;2022-09-17T00:38:58;6.00;;;5.40;;
4248;SDS011;8404;48.752;12.922;2022-09-17T00:41:29;5.72;;;5.10;;
4248;SDS011;8404;48.752;12.922;2022-09-17T00:43:59;4.85;;;4.40;;
4248;SDS011;8404;48.752;12.922;2022-09-17T00:46:30;5.20;;;4.55;;
4248;SDS011;8404;48.752;12.922;2022-09-17T00:49:02;3.83;;;3.28;;
4248;SDS011;8404;48.752;12.922;2022-09-17T00:51:33;6.35;;;3.30;;
4248;SDS011;8404;48.752;12.922;2022-09-17T00:54:05;3.75;;;3.08;;
4248;SDS011;8404;48.752;12.922;2022-09-17T00:56:37;4.03;;;2.80;;
4248;SDS011;8404;48.752;12.922;2022-09-17T00:59:08;3.88;;;3.17;;
4248;SDS011;8404;48.752;12.922;2022-09-17T01:01:37;5.03;;;3.65;;
4248;SDS011;8404;48.752;12.922;2022-09-17T01:04:05;5.15;;;2.88;;
4248;SDS011;8404;48.752;12.922;2022-09-17T01:06:34;4.15;;;3.10;;
4248;SDS011;8404;48.752;12.922;2022-09-17T01:09:13;4.25;;;2.70;;
4248;SDS011;8404;48.752;12.922;2022-09-17T01:12:05;4.28;;;2.50;;
4248;SDS011;8404;48.752;12.922;2022-09-17T01:14:51;4.15;;;2.22;;
4248;SDS011;8404;48.752;12.922;2022-09-17T01:17:28;5.70;;;2.90;;
4248;SDS011;8404;48.752;12.922;2022-09-17T01:20:09;3.33;;;2.53;;
4248;SDS011;8404;48.752;12.922;2022-09-17T01:22:59;5.82;;;2.75;;
4248;SDS011;8404;48.752;12.922;2022-09-17T01:25:52;3.65;;;2.00;;
4248;SDS011;8404;48.752;12.922;2022-09-17T01:28:33;6.22;;;2.25;;
4248;SDS011;8404;48.752;12.922;2022-09-17T01:31:18;3.22;;;2.20;;
4248;SDS011;8404;48.752;12.922;2022-09-17T01:34:08;3.20;;;2.35;;
4248;SDS011;8404;48.752;12.922;2022-09-17T01:36:48;4.63;;;2.80;;
4248;SDS011;8404;48.752;12.922;2022-09-17T01:39:28;3.28;;;2.28;;
4248;SDS011;8404;48.752;12.922;2022-09-17T01:42:03;3.53;;;2.63;;
4248;SDS011;8404;48.752;12.922;2022-09-17T01:44:39;3.05;;;1.90;;
4248;SDS011;8404;48.752;12.922;2022-09-17T01:47:15;3.10;;;2.30;;
4248;SDS011;8404;48.752;12.922;2022-09-17T01:49:47;3.20;;;2.20;;
4248;SDS011;8404;48.752;12.922;2022-09-17T01:52:17;3.92;;;2.17;;
4248;SDS011;8404;48.752;12.922;2022-09-17T01:54:48;3.42;;;2.70;;
4248;SDS011;8404;48.752;12.922;2022-09-17T01:57:21;3.33;;;2.35;;
4248;SDS011;8404;48.752;12.922;2022-09-17T01:59:55;4.75;;;2.50;;
4248;SDS011;8404;48.752;12.922;2022-09-17T02:02:38;3.75;;;2.28;;
4248;SDS011;8404;48.752;12.922;2022-09-17T02:05:12;2.88;;;2.22;;
4248;SDS011;8404;48.752;12.922;2022-09-17T02:07:46;3.25;;;2.38;;
4248;SDS011;8404;48.752;12.922;2022-09-17T02:10:19;4.20;;;2.38;;
4248;SDS011;8404;48.752;12.922;2022-09-17T02:12:53;3.95;;;2.10;;
4248;SDS011;8404;48.752;12.922;2022-09-17T02:15:24;3.30;;;2.35;;
4248;SDS011;8404;48.752;12.922;2022-09-17T02:17:57;2.80;;;2.30;;
4248;SDS011;8404;48.752;12.922;2022-09-17T02:20:34;4.78;;;2.53;;
4248;SDS011;8404;48.752;12.922;2022-09-17T02:23:07;4.57;;;3.15;;
4248;SDS011;8404;48.752;12.922;2022-09-17T02:25:41;3.58;;;2.58;;
4248;SDS011;8404;48.752;12.922;2022-09-17T02:28:16;3.58;;;2.83;;
4248;SDS011;8404;48.752;12.922;2022-09-17T02:30:48;4.00;;;2.83;;
4248;SDS011;8404;48.752;12.922;2022-09-17T02:33:18;4.60;;;2.60;;
4248;SDS011;8404;48.752;12.922;2022-09-17T02:35:48;3.20;;;2.42;;
4248;SDS011;8404;48.752;12.922;2022-09-17T02:38:20;3.10;;;2.70;;
4248;SDS011;8404;48.752;12.922;2022-09-17T02:40:50;3.90;;;2.50;;
4248;SDS011;8404;48.752;12.922;2022-09-17T02:43:25;3.05;;;2.38;;
4248;SDS011;8404;48.752;12.922;2022-09-17T02:46:04;3.58;;;2.50;;
4248;SDS011;8404;48.752;12.922;2022-09-17T02:48:49;4.20;;;2.63;;
4248;SDS011;8404;48.752;12.922;2022-09-17T02:51:32;4.40;;;2.42;;
4248;SDS011;8404;48.752;12.922;2022-09-17T02:54:10;4.65;;;3.30;;
4248;SDS011;8404;48.752;12.922;2022-09-17T02:56:47;4.65;;;2.75;;
4248;SDS011;8404;48.752;12.922;2022-09-17T02:59:21;4.82;;;2.60;;
4248;SDS011;8404;48.752;12.922;2022-09-17T03:01:57;2.78;;;2.30;;
4248;SDS011;8404;48.752;12.922;2022-09-17T03:04:31;2.50;;;2.25;;
4248;SDS011;8404;48.752;12.922;2022-09-17T03:07:03;4.28;;;2.72;;
4248;SDS011;8404;48.752;12.922;2022-09-17T03:09:34;3.53;;;2.38;;
4248;SDS011;8404;48.752;12.922;2022-09-17T03:12:02;4.95;;;2.45;;
4248;SDS011;8404;48.752;12.922;2022-09-17T03:14:30;3.15;;;2.17;;
4248;SDS011;8404;48.752;12.922;2022-09-17T03:16:59;3.97;;;2.60;;
4248;SDS011;8404;48.752;12.922;2022-09-17T03:19:27;4.28;;;2.92;;
4248;SDS011;8404;48.752;12.922;2022-09-17T03:21:56;4.18;;;2.75;;
4248;SDS011;8404;48.752;12.922;2022-09-17T03:24:24;3.80;;;2.42;;
4248;SDS011;8404;48.752;12.922;2022-09-17T03:26:53;3.85;;;2.35;;
4248;SDS011;8404;48.752;12.922;2022-09-17T03:29:21;3.53;;;2.38;;
4248;SDS011;8404;48.752;12.922;2022-09-17T03:31:49;3.55;;;3.05;;
4248;SDS011;8404;48.752;12.922;2022-09-17T03:34:17;3.35;;;2.75;;
4248;SDS011;8404;48.752;12.922;2022-09-17T03:36:46;5.95;;;3.33;;
4248;SDS011;8404;48.752;12.922;2022-09-17T03:39:15;4.05;;;3.30;;
4248;SDS011;8404;48.752;12.922;2022-09-17T03:41:43;4.28;;;3.60;;
4248;SDS011;8404;48.752;12.922;2022-09-17T03:44:11;3.50;;;2.97;;
4248;SDS011;8404;48.752;12.922;2022-09-17T03:46:40;5.13;;;3.28;;
4248;SDS011;8404;48.752;12.922;2022-09-17T03:49:08;4.00;;;3.40;;
4248;SDS011;8404;48.752;12.922;2022-09-17T03:51:36;3.75;;;2.60;;
4248;SDS011;8404;48.752;12.922;2022-09-17T03:54:04;5.30;;;2.67;;
4248;SDS011;8404;48.752;12.922;2022-09-17T03:56:34;3.58;;;2.40;;
4248;SDS011;8404;48.752;12.922;2022-09-17T03:59:02;3.20;;;2.47;;
4248;SDS011;8404;48.752;12.922;2022-09-17T04:01:30;5.18;;;2.97;;
4248;SDS011;8404;48.752;12.922;2022-09-17T04:03:58;3.50;;;2.83;;
4248;SDS011;8404;48.752;12.922;2022-09-17T04:06:26;3.97;;;2.92;;
4248;SDS011;8404;48.752;12.922;2022-09-17T04:08:54;4.78;;;3.03;;
4248;SDS011;8404;48.752;12.922;2022-09-17T04:11:23;3.65;;;2.67;;
4248;SDS011;8404;48.752;12.922;2022-09-17T04:13:52;3.75;;;2.63;;
4248;SDS011;8404;48.752;12.922;2022-09-17T04:16:20;3.40;;;2.30;;
4248;SDS011;8404;48.752;12.922;2022-09-17T04:18:48;4.60;;;2.38;;
4248;SDS011;8404;48.752;12.922;2022-09-17T04:21:16;4.72;;;2.92;;
4248;SDS011;8404;48.752;12.922;2022-09-17T04:23:44;3.47;;;2.38;;
4248;SDS011;8404;48.752;12.922;2022-09-17T04:26:12;2.80;;;2.08;;
4248;SDS011;8404;48.752;12.922;2022-09-17T04:28:40;3.47;;;2.55;;
4248;SDS011;8404;48.752;12.922;2022-09-17T04:31:10;2.85;;;1.80;;
4248;SDS011;8404;48.752;12.922;2022-09-17T04:33:38;3.38;;;2.22;;
4248;SDS011;8404;48.752;12.922;2022-09-17T04:36:06;4.88;;;2.53;;
4248;SDS011;8404;48.752;12.922;2022-09-17T04:38:34;4.68;;;2.60;;
4248;SDS011;8404;48.752;12.922;2022-09-17T04:41:02;4.53;;;2.67;;
4248;SDS011;8404;48.752;12.922;2022-09-17T04:43:33;3.22;;;2.30;;
4248;SDS011;8404;48.752;12.922;2022-09-17T04:46:01;4.30;;;2.47;;
4248;SDS011;8404;48.752;12.922;2022-09-17T04:48:31;3.75;;;2.95;;
4248;SDS011;8404;48.752;12.922;2022-09-17T04:50:59;3.55;;;2.20;;
4248;SDS011;8404;48.752;12.922;2022-09-17T04:53:27;3.50;;;2.08;;
4248;SDS011;8404;48.752;12.922;2022-09-17T04:55:55;2.55;;;2.03;;
4248;SDS011;8404;48.752;12.922;2022-09-17T04:58:23;4.00;;;2.03;;
4248;SDS011;8404;48.752;12.922;2022-09-17T05:00:51;3.47;;;2.10;;
4248;SDS011;8404;48.752;12.922;2022-09-17T05:03:19;4.00;;;2.10;;
4248;SDS011;8404;48.752;12.922;2022-09-17T05:05:48;3.75;;;2.35;;
4248;SDS011;8404;48.752;12.922;2022-09-17T05:08:16;4.28;;;2.75;;
4248;SDS011;8404;48.752;12.922;2022-09-17T05:10:44;5.32;;;2.58;;
4248;SDS011;8404;48.752;12.922;2022-09-17T05:13:12;4.55;;;2.70;;
4248;SDS011;8404;48.752;12.922;2022-09-17T05:15:40;4.00;;;2.25;;
4248;SDS011;8404;48.752;12.922;2022-09-17T05:18:08;4.97;;;2.25;;
4248;SDS011;8404;48.752;12.922;2022-09-17T05:20:36;3.72;;;2.53;;
4248;SDS011;8404;48.752;12.922;2022-09-17T05:23:06;5.13;;;3.08;;
4248;SDS011;8404;48.752;12.922;2022-09-17T05:25:34;5.82;;;3.17;;
4248;SDS011;8404;48.752;12.922;2022-09-17T05:28:02;4.15;;;2.55;;
4248;SDS011;8404;48.752;12.922;2022-09-17T05:30:30;5.68;;;2.95;;
4248;SDS011;8404;48.752;12.922;2022-09-17T05:32:59;3.55;;;2.40;;
4248;SDS011;8404;48.752;12.922;2022-09-17T05:35:28;3.95;;;2.70;;
4248;SDS011;8404;48.752;12.922;2022-09-17T05:37:57;4.55;;;3.50;;
4248;SDS011;8404;48.752;12.922;2022-09-17T05:40:27;4.38;;;3.10;;
4248;SDS011;8404;48.752;12.922;2022-09-17T05:42:56;4.35;;;3.00;;
4248;SDS011;8404;48.752;12.922;2022-09-17T05:45:25;4.80;;;2.97;;
4248;SDS011;8404;48.752;12.922;2022-09-17T05:47:54;5.63;;;3.10;;
4248;SDS011;8404;48.752;12.922;2022-09-17T05:50:23;6.10;;;4.50;;
4248;SDS011;8404;48.752;12.922;2022-09-17T05:52:51;4.85;;;2.90;;
4248;SDS011;8404;48.752;12.922;2022-09-17T05:55:20;6.25;;;3.05;;
4248;SDS011;8404;48.752;12.922;2022-09-17T05:57:51;7.95;;;3.70;;
4248;SDS011;8404;48.752;12.922;2022-09-17T06:00:19;6.50;;;3.40;;
4248;SDS011;8404;48.752;12.922;2022-09-17T06:02:52;5.85;;;3.58;;
4248;SDS011;8404;48.752;12.922;2022-09-17T06:05:21;4.15;;;3.45;;
4248;SDS011;8404;48.752;12.922;2022-09-17T06:07:49;6.47;;;3.45;;
4248;SDS011;8404;48.752;12.922;2022-09-17T06:10:17;8.18;;;5.28;;
4248;SDS011;8404;48.752;12.922;2022-09-17T06:12:45;9.00;;;5.93;;
4248;SDS011;8404;48.752;12.922;2022-09-17T06:15:15;6.93;;;4.38;;
4248;SDS011;8404;48.752;12.922;2022-09-17T06:17:42;4.43;;;2.78;;
4248;SDS011;8404;48.752;12.922;2022-09-17T06:20:11;8.30;;;4.32;;
4248;SDS011;8404;48.752;12.922;2022-09-17T06:22:39;5.32;;;3.55;;
4248;SDS011;8404;48.752;12.922;2022-09-17T06:25:07;5.13;;;3.30;;
4248;SDS011;8404;48.752;12.922;2022-09-17T06:27:35;5.15;;;2.90;;
4248;SDS011;8404;48.752;12.922;2022-09-17T06:30:04;3.83;;;3.08;;
4248;SDS011;8404;48.752;12.922;2022-09-17T06:32:34;7.45;;;3.60;;
4248;SDS011;8404;48.752;12.922;2022-09-17T06:35:02;3.83;;;3.00;;
4248;SDS011;8404;48.752;12.922;2022-09-17T06:37:31;4.60;;;3.50;;
4248;SDS011;8404;48.752;12.922;2022-09-17T06:39:59;5.03;;;3.53;;
4248;SDS011;8404;48.752;12.922;2022-09-17T06:42:27;6.10;;;3.83;;
4248;SDS011;8404;48.752;12.922;2022-09-17T06:44:55;4.53;;;3.30;;
4248;SDS011;8404;48.752;12.922;2022-09-17T06:47:27;6.53;;;4.38;;
4248;SDS011;8404;48.752;12.922;2022-09-17T06:49:56;5.05;;;3.47;;
4248;SDS011;8404;48.752;12.922;2022-09-17T06:52:25;5.68;;;2.78;;
4248;SDS011;8404;48.752;12.922;2022-09-17T06:54:53;6.32;;;3.20;;
4248;SDS011;8404;48.752;12.922;2022-09-17T06:57:21;8.85;;;3.63;;
4248;SDS011;8404;48.752;12.922;2022-09-17T06:59:49;7.55;;;3.50;;
4248;SDS011;8404;48.752;12.922;2022-09-17T07:02:17;4.75;;;3.47;;
4248;SDS011;8404;48.752;12.922;2022-09-17T07:04:45;4.28;;;3.67;;
4248;SDS011;8404;48.752;12.922;2022-09-17T07:07:15;7.03;;;3.72;;
4248;SDS011;8404;48.752;12.922;2022-09-17T07:09:43;3.33;;;3.03;;
4248;SDS011;8404;48.752;12.922;2022-09-17T07:12:11;6.88;;;2.67;;
4248;SDS011;8404;48.752;12.922;2022-09-17T07:14:39;7.95;;;3.35;;
4248;SDS011;8404;48.752;12.922;2022-09-17T07:17:07;5.28;;;3.35;;
4248;SDS011;8404;48.752;12.922;2022-09-17T07:19:35;5.80;;;2.92;;
4248;SDS011;8404;48.752;12.922;2022-09-17T07:22:04;4.78;;;3.08;;
4248;SDS011;8404;48.752;12.922;2022-09-17T07:24:34;5.60;;;2.53;;
4248;SDS011;8404;48.752;12.922;2022-09-17T07:27:02;4.80;;;2.28;;
4248;SDS011;8404;48.752;12.922;2022-09-17T07:29:30;4.55;;;2.42;;
4248;SDS011;8404;48.752;12.922;2022-09-17T07:31:58;4.63;;;2.22;;
4248;SDS011;8404;48.752;12.922;2022-09-17T07:34:26;4.55;;;2.33;;
4248;SDS011;8404;48.752;12.922;2022-09-17T07:36:54;4.80;;;2.30;;
4248;SDS011;8404;48.752;12.922;2022-09-17T07:39:22;3.10;;;1.95;;
4248;SDS011;8404;48.752;12.922;2022-09-17T07:41:51;5.85;;;2.40;;
4248;SDS011;8404;48.752;12.922;2022-09-17T07:44:19;2.92;;;1.83;;
4248;SDS011;8404;48.752;12.922;2022-09-17T07:46:48;5.50;;;2.50;;
4248;SDS011;8404;48.752;12.922;2022-09-17T07:49:16;3.45;;;1.92;;
4248;SDS011;8404;48.752;12.922;2022-09-17T07:51:44;4.90;;;2.35;;
4248;SDS011;8404;48.752;12.922;2022-09-17T07:54:12;3.85;;;2.30;;
4248;SDS011;8404;48.752;12.922;2022-09-17T07:56:40;4.78;;;2.10;;
4248;SDS011;8404;48.752;12.922;2022-09-17T07:59:11;4.95;;;2.63;;
4248;SDS011;8404;48.752;12.922;2022-09-17T08:01:39;4.18;;;2.38;;
4248;SDS011;8404;48.752;12.922;2022-09-17T08:04:08;3.15;;;1.90;;
4248;SDS011;8404;48.752;12.922;2022-09-17T08:06:36;4.50;;;1.92;;
4248;SDS011;8404;48.752;12.922;2022-09-17T08:09:06;4.95;;;2.35;;
4248;SDS011;8404;48.752;12.922;2022-09-17T08:11:36;5.30;;;2.22;;
4248;SDS011;8404;48.752;12.922;2022-09-17T08:14:22;5.40;;;2.22;;
4248;SDS011;8404;48.752;12.922;2022-09-17T08:16:55;3.58;;;1.67;;
4248;SDS011;8404;48.752;12.922;2022-09-17T08:19:23;5.95;;;1.60;;
4248;SDS011;8404;48.752;12.922;2022-09-17T08:21:54;4.30;;;1.98;;
4248;SDS011;8404;48.752;12.922;2022-09-17T08:24:22;3.25;;;1.85;;
4248;SDS011;8404;48.752;12.922;2022-09-17T08:26:50;2.90;;;1.50;;
4248;SDS011;8404;48.752;12.922;2022-09-17T08:29:18;3.88;;;2.00;;
4248;SDS011;8404;48.752;12.922;2022-09-17T08:31:48;5.13;;;1.90;;
4248;SDS011;8404;48.752;12.922;2022-09-17T08:34:16;2.55;;;1.73;;
4248;SDS011;8404;48.752;12.922;2022-09-17T08:36:44;3.90;;;1.90;;
4248;SDS011;8404;48.752;12.922;2022-09-17T08:39:12;3.38;;;1.63;;
4248;SDS011;8404;48.752;12.922;2022-09-17T08:41:43;3.90;;;1.52;;
4248;SDS011;8404;48.752;12.922;2022-09-17T08:44:20;4.30;;;1.70;;
4248;SDS011;8404;48.752;12.922;2022-09-17T08:46:53;5.22;;;1.70;;
4248;SDS011;8404;48.752;12.922;2022-09-17T08:49:31;3.40;;;1.27;;
4248;SDS011;8404;48.752;12.922;2022-09-17T08:55:04;5.60;;;1.95;;
4248;SDS011;8404;48.752;12.922;2022-09-17T08:57:42;3.05;;;1.48;;
4248;SDS011;8404;48.752;12.922;2022-09-17T09:02:53;3.03;;;1.27;;
4248;SDS011;8404;48.752;12.922;2022-09-17T09:05:30;3.30;;;1.52;;
4248;SDS011;8404;48.752;12.922;2022-09-17T09:08:10;1.95;;;1.40;;
4248;SDS011;8404;48.752;12.922;2022-09-17T09:10:44;3.17;;;1.48;;
4248;SDS011;8404;48.752;12.922;2022-09-17T09:13:17;2.97;;;1.55;;
4248;SDS011;8404;48.752;12.922;2022-09-17T09:15:50;2.78;;;1.02;;
4248;SDS011;8404;48.752;12.922;2022-09-17T09:18:24;1.35;;;0.80;;
4248;SDS011;8404;48.752;12.922;2022-09-17T09:20:57;1.05;;;0.80;;
4248;SDS011;8404;48.752;12.922;2022-09-17T09:23:37;1.45;;;0.70;;
4248;SDS011;8404;48.752;12.922;2022-09-17T09:26:15;0.70;;;0.40;;
4248;SDS011;8404;48.752;12.922;2022-09-17T09:31:57;2.10;;;0.60;;
4248;SDS011;8404;48.752;12.922;2022-09-17T09:34:43;1.02;;;0.57;;
4248;SDS011;8404;48.752;12.922;2022-09-17T09:37:13;1.15;;;0.50;;
4248;SDS011;8404;48.752;12.922;2022-09-17T09:39:44;0.70;;;0.55;;
4248;SDS011;8404;48.752;12.922;2022-09-17T09:42:15;1.20;;;0.60;;
4248;SDS011;8404;48.752;12.922;2022-09-17T09:44:49;1.77;;;0.50;;
4248;SDS011;8404;48.752;12.922;2022-09-17T09:47:21;1.17;;;0.55;;
4248;SDS011;8404;48.752;12.922;2022-09-17T09:50:09;1.63;;;0.82;;
4248;SDS011;8404;48.752;12.922;2022-09-17T09:52:50;2.40;;;0.68;;
4248;SDS011;8404;48.752;12.922;2022-09-17T09:55:30;2.47;;;0.90;;
4248;SDS011;8404;48.752;12.922;2022-09-17T09:58:08;1.55;;;0.70;;
4248;SDS011;8404;48.752;12.922;2022-09-17T10:00:44;2.03;;;0.50;;
4248;SDS011;8404;48.752;12.922;2022-09-17T10:03:13;2.28;;;1.20;;
4248;SDS011;8404;48.752;12.922;2022-09-17T10:05:53;1.40;;;0.93;;
4248;SDS011;8404;48.752;12.922;2022-09-17T10:08:23;2.65;;;0.70;;
4248;SDS011;8404;48.752;12.922;2022-09-17T10:10:53;1.33;;;0.70;;
4248;SDS011;8404;48.752;12.922;2022-09-17T10:13:22;2.38;;;0.90;;
4248;SDS011;8404;48.752;12.922;2022-09-17T10:15:51;2.92;;;1.10;;
4248;SDS011;8404;48.752;12.922;2022-09-17T10:18:20;2.05;;;0.70;;
4248;SDS011;8404;48.752;12.922;2022-09-17T10:21:00;1.15;;;0.70;;
4248;SDS011;8404;48.752;12.922;2022-09-17T10:23:28;2.25;;;0.70;;
4248;SDS011;8404;48.752;12.922;2022-09-17T10:26:02;1.95;;;0.68;;
4248;SDS011;8404;48.752;12.922;2022-09-17T10:28:32;0.50;;;0.40;;
4248;SDS011;8404;48.752;12.922;2022-09-17T10:31:04;1.80;;;0.70;;
4248;SDS011;8404;48.752;12.922;2022-09-17T10:33:39;0.70;;;0.50;;
4248;SDS011;8404;48.752;12.922;2022-09-17T10:36:34;2.30;;;1.25;;
4248;SDS011;8404;48.752;12.922;2022-09-17T10:42:02;1.55;;;0.70;;
4248;SDS011;8404;48.752;12.922;2022-09-17T10:44:32;2.70;;;0.82;;
4248;SDS011;8404;48.752;12.922;2022-09-17T10:47:03;1.77;;;0.70;;
4248;SDS011;8404;48.752;12.922;2022-09-17T10:49:34;3.13;;;0.82;;
4248;SDS011;8404;48.752;12.922;2022-09-17T10:52:10;2.22;;;0.80;;
4248;SDS011;8404;48.752;12.922;2022-09-17T10:57:59;2.55;;;1.38;;
4248;SDS011;8404;48.752;12.922;2022-09-17T11:00:33;2.20;;;1.52;;
4248;SDS011;8404;48.752;12.922;2022-09-17T11:03:32;2.63;;;1.75;;
4248;SDS011;8404;48.752;12.922;2022-09-17T11:06:19;2.47;;;1.33;;
4248;SDS011;8404;48.752;12.922;2022-09-17T11:09:08;2.42;;;1.33;;
4248;SDS011;8404;48.752;12.922;2022-09-17T11:11:47;3.55;;;1.48;;
4248;SDS011;8404;48.752;12.922;2022-09-17T11:14:36;4.00;;;1.40;;
4248;SDS011;8404;48.752;12.922;2022-09-17T11:17:20;1.05;;;0.90;;
4248;SDS011;8404;48.752;12.922;2022-09-17T11:20:13;4.10;;;1.45;;
4248;SDS011;8404;48.752;12.922;2022-09-17T11:22:51;2.60;;;1.55;;
4248;SDS011;8404;48.752;12.922;2022-09-17T11:25:34;3.25;;;1.98;;
4248;SDS011;8404;48.752;12.922;2022-09-17T11:28:12;3.08;;;1.65;;
4248;SDS011;8404;48.752;12.922;2022-09-17T11:30:54;3.47;;;2.05;;
4248;SDS011;8404;48.752;12.922;2022-09-17T11:33:37;5.32;;;3.53;;
4248;SDS011;8404;48.752;12.922;2022-09-17T11:36:20;3.03;;;1.95;;
4248;SDS011;8404;48.752;12.922;2022-09-17T11:38:52;4.55;;;1.98;;
4248;SDS011;8404;48.752;12.922;2022-09-17T11:41:26;4.00;;;2.47;;
4248;SDS011;8404;48.752;12.922;2022-09-17T11:43:59;2.78;;;2.22;;
4248;SDS011;8404;48.752;12.922;2022-09-17T11:46:36;3.67;;;1.58;;
4248;SDS011;8404;48.752;12.922;2022-09-17T11:49:09;4.10;;;2.05;;
4248;SDS011;8404;48.752;12.922;2022-09-17T11:51:48;2.63;;;1.83;;
4248;SDS011;8404;48.752;12.922;2022-09-17T11:54:21;3.58;;;2.05;;
4248;SDS011;8404;48.752;12.922;2022-09-17T11:56:57;5.30;;;2.22;;
4248;SDS011;8404;48.752;12.922;2022-09-17T11:59:37;5.90;;;2.30;;
4248;SDS011;8404;48.752;12.922;2022-09-17T12:02:12;5.40;;;2.40;;
4248;SDS011;8404;48.752;12.922;2022-09-17T12:04:46;5.40;;;2.83;;
4248;SDS011;8404;48.752;12.922;2022-09-17T12:07:23;4.65;;;2.42;;
4248;SDS011;8404;48.752;12.922;2022-09-17T12:09:59;6.13;;;2.63;;
4248;SDS011;8404;48.752;12.922;2022-09-17T12:12:41;4.30;;;2.80;;
4248;SDS011;8404;48.752;12.922;2022-09-17T12:15:17;5.68;;;2.58;;
4248;SDS011;8404;48.752;12.922;2022-09-17T12:17:49;5.72;;;2.15;;
4248;SDS011;8404;48.752;12.922;2022-09-17T12:20:44;4.25;;;2.38;;
4248;SDS011;8404;48.752;12.922;2022-09-17T12:23:16;4.18;;;2.30;;
4248;SDS011;8404;48.752;12.922;2022-09-17T12:25:54;6.40;;;2.38;;
4248;SDS011;8404;48.752;12.922;2022-09-17T12:28:30;5.50;;;2.53;;
4248;SDS011;8404;48.752;12.922;2022-09-17T12:31:04;4.15;;;2.92;;
4248;SDS011;8404;48.752;12.922;2022-09-17T12:33:38;4.22;;;2.28;;
4248;SDS011;8404;48.752;12.922;2022-09-17T12:36:18;5.97;;;2.13;;
4248;SDS011;8404;48.752;12.922;2022-09-17T12:39:03;5.00;;;2.83;;
4248;SDS011;8404;48.752;12.922;2022-09-17T12:41:53;5.70;;;1.90;;
4248;SDS011;8404;48.752;12.922;2022-09-17T12:44:38;6.22;;;2.53;;
4248;SDS011;8404;48.752;12.922;2022-09-17T12:47:18;4.13;;;2.55;;
4248;SDS011;8404;48.752;12.922;2022-09-17T12:50:07;7.35;;;2.70;;
4248;SDS011;8404;48.752;12.922;2022-09-17T12:52:47;4.28;;;2.17;;
4248;SDS011;8404;48.752;12.922;2022-09-17T12:55:35;6.35;;;2.67;;
4248;SDS011;8404;48.752;12.922;2022-09-17T12:58:16;5.10;;;2.13;;
4248;SDS011;8404;48.752;12.922;2022-09-17T13:00:58;5.90;;;2.20;;
4248;SDS011;8404;48.752;12.922;2022-09-17T13:03:31;7.95;;;2.58;;
4248;SDS011;8404;48.752;12.922;2022-09-17T13:06:08;6.90;;;2.47;;
4248;SDS011;8404;48.752;12.922;2022-09-17T13:08:55;4.55;;;1.85;;
4248;SDS011;8404;48.752;12.922;2022-09-17T13:14:46;15.65;;;13.95;;
4248;SDS011;8404;48.752;12.922;2022-09-17T13:17:32;6.05;;;2.75;;
4248;SDS011;8404;48.752;12.922;2022-09-17T13:20:10;6.25;;;2.53;;
4248;SDS011;8404;48.752;12.922;2022-09-17T13:22:43;3.75;;;2.20;;
4248;SDS011;8404;48.752;12.922;2022-09-17T13:25:13;3.72;;;2.15;;
4248;SDS011;8404;48.752;12.922;2022-09-17T13:27:44;6.65;;;2.40;;
4248;SDS011;8404;48.752;12.922;2022-09-17T13:30:13;4.85;;;2.80;;
4248;SDS011;8404;48.752;12.922;2022-09-17T13:32:52;5.78;;;2.20;;
4248;SDS011;8404;48.752;12.922;2022-09-17T13:38:16;5.90;;;2.17;;
4248;SDS011;8404;48.752;12.922;2022-09-17T13:40:49;4.10;;;2.30;;
4248;SDS011;8404;48.752;12.922;2022-09-17T13:43:19;5.78;;;2.60;;
4248;SDS011;8404;48.752;12.922;2022-09-17T13:46:05;5.93;;;3.40;;
4248;SDS011;8404;48.752;12.922;2022-09-17T13:48:42;4.45;;;2.78;;
4248;SDS011;8404;48.752;12.922;2022-09-17T13:54:21;6.00;;;3.05;;
4248;SDS011;8404;48.752;12.922;2022-09-17T13:57:02;4.90;;;2.42;;
4248;SDS011;8404;48.752;12.922;2022-09-17T13:59:51;6.28;;;2.03;;
4248;SDS011;8404;48.752;12.922;2022-09-17T14:02:31;4.32;;;2.00;;
4248;SDS011;8404;48.752;12.922;2022-09-17T14:08:22;4.82;;;2.05;;
4248;SDS011;8404;48.752;12.922;2022-09-17T14:10:57;5.80;;;1.83;;
4248;SDS011;8404;48.752;12.922;2022-09-17T14:13:38;7.10;;;2.78;;
4248;SDS011;8404;48.752;12.922;2022-09-17T14:19:16;6.78;;;2.10;;
4248;SDS011;8404;48.752;12.922;2022-09-17T14:22:01;7.25;;;2.78;;
4248;SDS011;8404;48.752;12.922;2022-09-17T14:24:45;5.78;;;2.85;;
4248;SDS011;8404;48.752;12.922;2022-09-17T14:27:19;3.97;;;2.58;;
4248;SDS011;8404;48.752;12.922;2022-09-17T14:30:15;6.43;;;3.28;;
4248;SDS011;8404;48.752;12.922;2022-09-17T14:32:47;3.75;;;2.20;;
4248;SDS011;8404;48.752;12.922;2022-09-17T14:35:21;5.35;;;3.13;;
4248;SDS011;8404;48.752;12.922;2022-09-17T14:37:53;4.47;;;1.95;;
4248;SDS011;8404;48.752;12.922;2022-09-17T14:40:25;7.05;;;3.35;;
4248;SDS011;8404;48.752;12.922;2022-09-17T14:42:55;3.55;;;2.33;;
4248;SDS011;8404;48.752;12.922;2022-09-17T14:45:26;6.47;;;2.80;;
4248;SDS011;8404;48.752;12.922;2022-09-17T14:50:45;5.75;;;2.40;;
4248;SDS011;8404;48.752;12.922;2022-09-17T14:53:14;4.72;;;2.20;;
4248;SDS011;8404;48.752;12.922;2022-09-17T14:55:46;12.50;;;10.10;;
4248;SDS011;8404;48.752;12.922;2022-09-17T14:58:26;5.15;;;2.90;;
4248;SDS011;8404;48.752;12.922;2022-09-17T15:00:58;4.45;;;2.33;;
4248;SDS011;8404;48.752;12.922;2022-09-17T15:03:26;4.05;;;2.00;;
4248;SDS011;8404;48.752;12.922;2022-09-17T15:05:55;4.43;;;1.50;;
4248;SDS011;8404;48.752;12.922;2022-09-17T15:08:23;4.07;;;1.50;;
4248;SDS011;8404;48.752;12.922;2022-09-17T15:10:57;5.47;;;1.90;;
4248;SDS011;8404;48.752;12.922;2022-09-17T15:13:28;3.60;;;1.70;;
4248;SDS011;8404;48.752;12.922;2022-09-17T15:15:59;3.75;;;1.40;;
4248;SDS011;8404;48.752;12.922;2022-09-17T15:18:31;3.28;;;1.20;;
4248;SDS011;8404;48.752;12.922;2022-09-17T15:21:03;1.58;;;0.90;;
4248;SDS011;8404;48.752;12.922;2022-09-17T15:23:37;1.50;;;0.93;;
4248;SDS011;8404;48.752;12.922;2022-09-17T15:26:07;1.52;;;0.70;;
4248;SDS011;8404;48.752;12.922;2022-09-17T15:28:36;3.13;;;1.10;;
4248;SDS011;8404;48.752;12.922;2022-09-17T15:31:09;3.50;;;1.23;;
4248;SDS011;8404;48.752;12.922;2022-09-17T15:33:43;3.13;;;1.05;;
4248;SDS011;8404;48.752;12.922;2022-09-17T15:36:14;1.75;;;1.10;;
4248;SDS011;8404;48.752;12.922;2022-09-17T15:38:46;1.98;;;1.08;;
4248;SDS011;8404;48.752;12.922;2022-09-17T15:44:07;1.75;;;1.20;;
4248;SDS011;8404;48.752;12.922;2022-09-17T15:50:12;3.28;;;1.23;;
4248;SDS011;8404;48.752;12.922;2022-09-17T15:52:41;2.75;;;1.58;;
4248;SDS011;8404;48.752;12.922;2022-09-17T15:55:29;3.40;;;1.77;;
4248;SDS011;8404;48.752;12.922;2022-09-17T15:58:04;3.55;;;1.55;;
4248;SDS011;8404;48.752;12.922;2022-09-17T16:00:45;4.72;;;1.70;;
4248;SDS011;8404;48.752;12.922;2022-09-17T16:03:41;2.42;;;1.60;;
4248;SDS011;8404;48.752;12.922;2022-09-17T16:06:34;3.00;;;1.63;;
4248;SDS011;8404;48.752;12.922;2022-09-17T16:09:34;3.72;;;1.88;;
4248;SDS011;8404;48.752;12.922;2022-09-17T16:12:03;3.03;;;1.40;;
4248;SDS011;8404;48.752;12.922;2022-09-17T16:14:33;4.32;;;2.30;;
4248;SDS011;8404;48.752;12.922;2022-09-17T16:17:13;3.72;;;1.83;;